Country
Station

 

Weather  for  Hiroshima Airport  -  Japan    Japan

  
22 °C (72 °F)
    
 
 

Current METAR for Hiroshima Airport is :

RJOA 191300Z 08010KT 2000 -SHRA BCFG BR FEW000 SCT001 BKN002 22/21 Q1013

 

This is a report for Hiroshima Airport - Japan.
 
The report was made 4 hours and 22 minutes ago, at 13:00 UTC .
The wind was blowing at a speed of 5.1 meters per second (11.5 miles per hour) from east (080°).
 
The temperature was 22 °C (72 °F), with a dew-point at 21 °C (70 °F).
The temperature felt like 20 °C (68 °F).
 
The atmospheric pressure was 1013 hPa (29.91 inHg).
The relative humidity was 94.1%.
 
There were a few clouds at a height of 30 meters (100 feet), scattered clouds at a height of 30 meters (100 feet) and broken clouds at a height of 61 meters (200 feet).
 
The overall visibility was 2000 meter (6562 feet).
 
Currently showers of light rain plus patches of fog plus mist.

 
 
 
 

Country :   A   B   C   D   E   F   G   H   I   J   K   L   M   N   O   P   Q   R   S   T   U   V   W   Y   Z

 

Site Info  |  Disclaimer  |  Credits  |  Privacy
Contact us  |  Add to favorites
© 2013-2019 METARs - All rights reserved